Lubbock, TX (79424)

3:01 PM CST on November 23, 2014 (GMT -0600)
Monterey | Change Station
CLOSE
Current Station
Personal Weather Station
Location: Lubbock, TX
Elevation: 3281 ft
Nearby Weather Stations
Active Advisory: Wind Advisory

Elev 3281 ft 33.52 °N, 101.96 °W | Updated 10 minutes ago

Partly Cloudy
Partly Cloudy
59.7 °F
Feels Like 59.7 °F
N
11.4
Wind Variable Wind from North

Today
High -- | Low -- °F
--% Chance of Precip.
Yesterday
High -- | Low -- °F
Precip. -- in
7:26 AM 5:41 PM
New Moon, 2% visible
Pressure 29.55 in
Visibility 10.0 miles
Clouds Scattered Clouds 7500 ft
Scattered Clouds 10000 ft
Dew Point 33 °F
Humidity 37%
Rainfall 0.00 in
Snow Depth Not available.
UV 2 out of 12
Pollen 7.30 out of 12
Air Quality Not available.
Flu Activity Not available.
METAR KLBB 232053Z 35023G31KT 10SM SCT075 SCT100 16/M01 A2963 RMK AO2 PK WND 01032/2032 SLP006 T01611011 53007

More Conditions Fewer Conditions

Pressure 29.55 in
Visibility 10.0 miles
Clouds Scattered Clouds 7500 ft
Scattered Clouds 10000 ft
Dew Point 33 °F
Humidity 37%
Rainfall 0.00 in
Snow Depth Not available.
UV 2 out of 12
Pollen 7.30 out of 12
Air Quality Not available.
Flu Activity Not available.
METAR KLBB 232053Z 35023G31KT 10SM SCT075 SCT100 16/M01 A2963 RMK AO2 PK WND 01032/2032 SLP006 T01611011 53007

More Conditions Fewer Conditions

10-Day Weather Forecast

Almanac

Astronomy

Nov. 23, 2014 Rise Set
Actual Time
Civil Twilight
Nautical Twilight
Astronomical Twilight
Moon
Length of Visible Light
Length of Day
Tomorrow will be .
, % of the Moon is Illuminated

Today's Extremes

State Highs State Lows

Community

WunderPhotos

Upload Photos

1,773,176 photos uploaded!

WunderBlogs® & News

Nearby

Air Quality

  Air Quality AQ Index Pollutant
Not available.

Snow Depth

Station Depth Elevation

Earthquake Activity

City Distance Mag. Time & Date
Minimum magnitude displayed is 2.5.

Coastal Water Temperatures

Place Temperature

Nearby Weather Stations